N70CR SEGU-MUHA
Flight info
| Callsign | N70CR |
|---|---|
| Flight time | 3h 21m |
| Altitude | 40000 |
| Route | TOLAV2 UGUPI UL780 BUXOS/N0473F430 UL780 TBG UL465 GCM UG448 ATUVI DUTAN1A |
| Aircraft | C700/M-SBDGHM1RWXY/LB2 |
Departure
| Time | 2026-04-29 13:57 |
|---|---|
| Airport | José Joaquín de Olmedo International Airport (SEGU) |
Arrival
| Time | 2026-04-29 17:18 |
|---|---|
| Airport | José Martí International Airport (MUHA) |
| Time | Latitude | Longitude | Altitude | Speed | Heading |
|---|---|---|---|---|---|
| 2026-04-29 13:50 | -2.14720 | -79.88240 | 16 ft | 0 kts | 296° |
| 2026-04-29 13:51 | -2.14726 | -79.88244 | 16 ft | 1 kts | 188° |
| 2026-04-29 13:51 | -2.14728 | -79.88225 | 18 ft | 6 kts | 75° |
| 2026-04-29 13:51 | -2.14781 | -79.88158 | 16 ft | 19 kts | 135° |
| 2026-04-29 13:52 | -2.14826 | -79.88023 | 16 ft | 16 kts | 66° |
| 2026-04-29 13:52 | -2.14748 | -79.87985 | 17 ft | 14 kts | 28° |
| 2026-04-29 13:52 | -2.14670 | -79.87924 | 16 ft | 16 kts | 64° |
| 2026-04-29 13:52 | -2.14662 | -79.87907 | 16 ft | 0 kts | 66° |
| 2026-04-29 13:54 | -2.14661 | -79.87904 | 16 ft | 3 kts | 66° |
| 2026-04-29 13:54 | -2.14637 | -79.87844 | 17 ft | 16 kts | 73° |
| 2026-04-29 13:55 | -2.14675 | -79.87743 | 16 ft | 18 kts | 163° |
| 2026-04-29 13:55 | -2.14781 | -79.87799 | 15 ft | 18 kts | 227° |
| 2026-04-29 13:55 | -2.14853 | -79.87856 | 16 ft | 0 kts | 208° |
| 2026-04-29 13:56 | -2.15041 | -79.87966 | 17 ft | 74 kts | 211° |
| 2026-04-29 13:56 | -2.15726 | -79.88362 | 47 ft | 150 kts | 208° |
| 2026-04-29 13:57 | -2.16736 | -79.88907 | 633 ft | 174 kts | 208° |
| 2026-04-29 13:57 | -2.17754 | -79.89523 | 1014 ft | 171 kts | 214° |
| 2026-04-29 13:57 | -2.18746 | -79.90133 | 1263 ft | 167 kts | 212° |
| 2026-04-29 13:57 | -2.19809 | -79.90733 | 1469 ft | 185 kts | 211° |
| 2026-04-29 13:58 | -2.20959 | -79.91426 | 1921 ft | 198 kts | 212° |
| 2026-04-29 13:58 | -2.22014 | -79.92339 | 2229 ft | 205 kts | 240° |
| 2026-04-29 13:58 | -2.22243 | -79.93705 | 2534 ft | 206 kts | 282° |
| 2026-04-29 13:58 | -2.21487 | -79.94909 | 2933 ft | 211 kts | 322° |
| 2026-04-29 13:59 | -2.20096 | -79.95348 | 3349 ft | 215 kts | 356° |
| 2026-04-29 13:59 | -2.18616 | -79.95379 | 3762 ft | 216 kts | 358° |
| 2026-04-29 13:59 | -2.17113 | -79.95430 | 4188 ft | 217 kts | 358° |
| 2026-04-29 13:59 | -2.15602 | -79.95491 | 4613 ft | 217 kts | 358° |
| 2026-04-29 14:00 | -2.14087 | -79.95559 | 5024 ft | 219 kts | 358° |
| 2026-04-29 14:00 | -2.12554 | -79.95625 | 5445 ft | 226 kts | 358° |
| 2026-04-29 14:00 | -2.10839 | -79.95697 | 5982 ft | 264 kts | 358° |
| 2026-04-29 14:00 | -2.08941 | -79.95784 | 7053 ft | 275 kts | 359° |
| 2026-04-29 14:01 | -2.07051 | -79.95867 | 8509 ft | 279 kts | 358° |
| 2026-04-29 14:01 | -2.05085 | -79.95952 | 9861 ft | 287 kts | 359° |
| 2026-04-29 14:01 | -2.03025 | -79.96038 | 10780 ft | 309 kts | 359° |
| 2026-04-29 14:01 | -2.00813 | -79.96131 | 11798 ft | 322 kts | 359° |
| 2026-04-29 14:02 | -1.98555 | -79.96238 | 13073 ft | 329 kts | 359° |
| 2026-04-29 14:02 | -1.96241 | -79.96339 | 14179 ft | 336 kts | 359° |
| 2026-04-29 14:02 | -1.93884 | -79.96439 | 15252 ft | 342 kts | 359° |
| 2026-04-29 14:02 | -1.91487 | -79.96541 | 16321 ft | 348 kts | 359° |
| 2026-04-29 14:03 | -1.89045 | -79.96650 | 17383 ft | 354 kts | 359° |
| 2026-04-29 14:03 | -1.86597 | -79.96756 | 18378 ft | 360 kts | 359° |
| 2026-04-29 14:03 | -1.84076 | -79.96864 | 19266 ft | 366 kts | 359° |
| 2026-04-29 14:03 | -1.81513 | -79.96976 | 20147 ft | 372 kts | 359° |
| 2026-04-29 14:04 | -1.78910 | -79.97090 | 21028 ft | 377 kts | 358° |
| 2026-04-29 14:04 | -1.76268 | -79.97205 | 21889 ft | 383 kts | 358° |
| 2026-04-29 14:04 | -1.73585 | -79.97321 | 22743 ft | 389 kts | 358° |
| 2026-04-29 14:04 | -1.70861 | -79.97441 | 23552 ft | 395 kts | 358° |
| 2026-04-29 14:05 | -1.68101 | -79.97562 | 24265 ft | 399 kts | 358° |
| 2026-04-29 14:05 | -1.65317 | -79.97679 | 24999 ft | 402 kts | 358° |
| 2026-04-29 14:05 | -1.62511 | -79.97803 | 25750 ft | 405 kts | 358° |
| 2026-04-29 14:05 | -1.59719 | -79.97932 | 26484 ft | 409 kts | 358° |
| 2026-04-29 14:06 | -1.56858 | -79.98052 | 27205 ft | 413 kts | 358° |
| 2026-04-29 14:06 | -1.53974 | -79.98173 | 27907 ft | 417 kts | 358° |
| 2026-04-29 14:06 | -1.51062 | -79.98300 | 28584 ft | 421 kts | 358° |
| 2026-04-29 14:06 | -1.48123 | -79.98428 | 29236 ft | 425 kts | 358° |
| 2026-04-29 14:07 | -1.45159 | -79.98435 | 29858 ft | 428 kts | 4° |
| 2026-04-29 14:07 | -1.42170 | -79.98251 | 30405 ft | 432 kts | 4° |
| 2026-04-29 14:07 | -1.39150 | -79.98093 | 30914 ft | 437 kts | 2° |
| 2026-04-29 14:07 | -1.36142 | -79.97949 | 31398 ft | 441 kts | 2° |
| 2026-04-29 14:08 | -1.33060 | -79.97786 | 31907 ft | 445 kts | 3° |
| 2026-04-29 14:08 | -1.29951 | -79.97615 | 32395 ft | 450 kts | 2° |
| 2026-04-29 14:08 | -1.26810 | -79.97450 | 32864 ft | 454 kts | 2° |
| 2026-04-29 14:08 | -1.23644 | -79.97287 | 33412 ft | 456 kts | 2° |
| 2026-04-29 14:09 | -1.20476 | -79.97118 | 34045 ft | 455 kts | 2° |
| 2026-04-29 14:09 | -1.17313 | -79.96954 | 34560 ft | 455 kts | 2° |
| 2026-04-29 14:09 | -1.14149 | -79.96789 | 35082 ft | 455 kts | 2° |
| 2026-04-29 14:09 | -1.11031 | -79.96627 | 35627 ft | 455 kts | 2° |
| 2026-04-29 14:10 | -1.07873 | -79.96457 | 36175 ft | 454 kts | 2° |
| 2026-04-29 14:10 | -1.04719 | -79.96288 | 36737 ft | 454 kts | 2° |
| 2026-04-29 14:10 | -1.01568 | -79.96122 | 37268 ft | 453 kts | 2° |
| 2026-04-29 14:10 | -0.98426 | -79.95960 | 37782 ft | 452 kts | 2° |
| 2026-04-29 14:11 | -0.95283 | -79.95802 | 38255 ft | 452 kts | 2° |
| 2026-04-29 14:11 | -0.92144 | -79.95633 | 38718 ft | 451 kts | 2° |
| 2026-04-29 14:11 | -0.89015 | -79.95461 | 39086 ft | 450 kts | 2° |
| 2026-04-29 14:11 | -0.85887 | -79.95298 | 39442 ft | 449 kts | 2° |
| 2026-04-29 14:12 | -0.82811 | -79.95140 | 39773 ft | 449 kts | 2° |
| 2026-04-29 14:12 | -0.79690 | -79.94976 | 39976 ft | 452 kts | 2° |
| 2026-04-29 14:12 | -0.73311 | -79.94639 | 39982 ft | 466 kts | 2° |
| 2026-04-29 14:13 | -0.66736 | -79.94294 | 39995 ft | 480 kts | 2° |
| 2026-04-29 14:13 | -0.59972 | -79.93938 | 40001 ft | 493 kts | 1° |
| 2026-04-29 14:14 | -0.53065 | -79.93574 | 39998 ft | 500 kts | 1° |
| 2026-04-29 14:14 | -0.46154 | -79.93211 | 40000 ft | 502 kts | 1° |
| 2026-04-29 14:15 | -0.39167 | -79.92843 | 39997 ft | 504 kts | 1° |
| 2026-04-29 14:15 | -0.32161 | -79.92475 | 39995 ft | 505 kts | 1° |
| 2026-04-29 14:16 | -0.25139 | -79.92106 | 39989 ft | 505 kts | 1° |
| 2026-04-29 14:16 | -0.18163 | -79.91739 | 39990 ft | 506 kts | 1° |
| 2026-04-29 14:17 | -0.11131 | -79.91369 | 39983 ft | 506 kts | 1° |
| 2026-04-29 14:17 | -0.04090 | -79.91000 | 39982 ft | 507 kts | 1° |
| 2026-04-29 14:18 | 0.02955 | -79.90628 | 39982 ft | 507 kts | 1° |
| 2026-04-29 14:18 | 0.09999 | -79.90258 | 39976 ft | 507 kts | 0° |
| 2026-04-29 14:19 | 0.17004 | -79.89891 | 39975 ft | 508 kts | 0° |
| 2026-04-29 14:19 | 0.24062 | -79.89518 | 39971 ft | 508 kts | 0° |
| 2026-04-29 14:20 | 0.31122 | -79.89149 | 39969 ft | 508 kts | 0° |
| 2026-04-29 14:20 | 0.38188 | -79.88776 | 39970 ft | 509 kts | 0° |
| 2026-04-29 14:21 | 0.45214 | -79.88407 | 39968 ft | 509 kts | 0° |
| 2026-04-29 14:21 | 0.52287 | -79.88035 | 39966 ft | 509 kts | 0° |
| 2026-04-29 14:22 | 0.59368 | -79.87662 | 39962 ft | 510 kts | 0° |
| 2026-04-29 14:22 | 0.64062 | -79.87415 | 39960 ft | 510 kts | 0° |
| 2026-04-29 14:23 | 0.73498 | -79.86920 | 39958 ft | 511 kts | 0° |
| 2026-04-29 14:23 | 0.80602 | -79.86545 | 39953 ft | 511 kts | 0° |
| 2026-04-29 14:24 | 0.87714 | -79.86173 | 39951 ft | 512 kts | 0° |
| 2026-04-29 14:24 | 0.94828 | -79.85797 | 39949 ft | 512 kts | 0° |
| 2026-04-29 14:25 | 1.01942 | -79.85424 | 39950 ft | 512 kts | 0° |
| 2026-04-29 14:25 | 1.09012 | -79.85051 | 39948 ft | 512 kts | 0° |
| 2026-04-29 14:26 | 1.16134 | -79.84677 | 39947 ft | 513 kts | 0° |
| 2026-04-29 14:26 | 1.23259 | -79.84302 | 39937 ft | 513 kts | 0° |
| 2026-04-29 14:27 | 1.30385 | -79.83927 | 39935 ft | 513 kts | 0° |
| 2026-04-29 14:28 | 1.41015 | -79.83368 | 39928 ft | 512 kts | 0° |
| 2026-04-29 14:28 | 1.48135 | -79.83040 | 39929 ft | 512 kts | 359° |
| 2026-04-29 14:29 | 1.55255 | -79.82736 | 39928 ft | 512 kts | 360° |
| 2026-04-29 14:29 | 1.62377 | -79.82412 | 39927 ft | 512 kts | 359° |
| 2026-04-29 14:30 | 1.69450 | -79.82104 | 39927 ft | 512 kts | 359° |
| 2026-04-29 14:30 | 1.76570 | -79.81784 | 39932 ft | 512 kts | 359° |
| 2026-04-29 14:31 | 1.83682 | -79.81471 | 39927 ft | 511 kts | 359° |
| 2026-04-29 14:31 | 1.90791 | -79.81154 | 39926 ft | 511 kts | 359° |
| 2026-04-29 14:32 | 1.97851 | -79.80842 | 39929 ft | 511 kts | 359° |
| 2026-04-29 14:32 | 2.04955 | -79.80526 | 39928 ft | 511 kts | 359° |
| 2026-04-29 14:33 | 2.12059 | -79.80211 | 39922 ft | 511 kts | 359° |
| 2026-04-29 14:33 | 2.19153 | -79.79896 | 39927 ft | 510 kts | 359° |
| 2026-04-29 14:34 | 2.26240 | -79.79582 | 39924 ft | 510 kts | 359° |
| 2026-04-29 14:34 | 2.33284 | -79.79269 | 39919 ft | 510 kts | 359° |
| 2026-04-29 14:35 | 2.40380 | -79.78954 | 39918 ft | 511 kts | 359° |
| 2026-04-29 14:35 | 2.47483 | -79.78639 | 39918 ft | 511 kts | 359° |
| 2026-04-29 14:36 | 2.54591 | -79.78323 | 39918 ft | 511 kts | 359° |
| 2026-04-29 14:36 | 2.61652 | -79.78010 | 39918 ft | 511 kts | 359° |
| 2026-04-29 14:37 | 2.68764 | -79.77694 | 39919 ft | 512 kts | 359° |
| 2026-04-29 14:37 | 2.75879 | -79.77378 | 39918 ft | 512 kts | 359° |
| 2026-04-29 14:38 | 2.83002 | -79.77061 | 39918 ft | 512 kts | 359° |
| 2026-04-29 14:38 | 2.90119 | -79.76745 | 39918 ft | 512 kts | 359° |
| 2026-04-29 14:39 | 2.97241 | -79.76429 | 39918 ft | 512 kts | 359° |
| 2026-04-29 14:39 | 3.04314 | -79.76115 | 39919 ft | 512 kts | 359° |
| 2026-04-29 14:40 | 3.11433 | -79.75798 | 39918 ft | 512 kts | 359° |
| 2026-04-29 14:40 | 3.18553 | -79.75482 | 39919 ft | 512 kts | 359° |
| 2026-04-29 14:41 | 3.25675 | -79.75165 | 39919 ft | 512 kts | 359° |
| 2026-04-29 14:41 | 3.32745 | -79.74850 | 39919 ft | 512 kts | 359° |
| 2026-04-29 14:42 | 3.39862 | -79.74534 | 39918 ft | 512 kts | 360° |
| 2026-04-29 14:42 | 3.46980 | -79.74217 | 39918 ft | 512 kts | 360° |
| 2026-04-29 14:43 | 3.54093 | -79.73902 | 39917 ft | 511 kts | 360° |
| 2026-04-29 14:43 | 3.61153 | -79.73587 | 39918 ft | 511 kts | 360° |
| 2026-04-29 14:44 | 3.68256 | -79.73271 | 39919 ft | 511 kts | 360° |
| 2026-04-29 14:44 | 3.75356 | -79.72955 | 39919 ft | 511 kts | 360° |
| 2026-04-29 14:45 | 3.82454 | -79.72639 | 39920 ft | 510 kts | 0° |
| 2026-04-29 14:45 | 3.89498 | -79.72326 | 39921 ft | 510 kts | 0° |
| 2026-04-29 14:46 | 3.96597 | -79.72009 | 39919 ft | 510 kts | 0° |
| 2026-04-29 14:46 | 4.03686 | -79.71694 | 39920 ft | 510 kts | 0° |
| 2026-04-29 14:47 | 4.10779 | -79.71378 | 39922 ft | 510 kts | 0° |
| 2026-04-29 14:47 | 4.17818 | -79.71064 | 39916 ft | 510 kts | 0° |
| 2026-04-29 14:48 | 4.24904 | -79.70749 | 39917 ft | 510 kts | 0° |
| 2026-04-29 14:48 | 4.31991 | -79.70432 | 39920 ft | 510 kts | 0° |
| 2026-04-29 14:49 | 4.39080 | -79.70117 | 39919 ft | 510 kts | 0° |
| 2026-04-29 14:49 | 4.46116 | -79.69803 | 39915 ft | 509 kts | 0° |
| 2026-04-29 14:50 | 4.53202 | -79.69487 | 39915 ft | 510 kts | 0° |
| 2026-04-29 14:50 | 4.60287 | -79.69171 | 39916 ft | 510 kts | 0° |
| 2026-04-29 14:51 | 4.67377 | -79.68855 | 39916 ft | 510 kts | 0° |
| 2026-04-29 14:51 | 4.74427 | -79.68540 | 39915 ft | 511 kts | 0° |
| 2026-04-29 14:52 | 4.81524 | -79.68224 | 39916 ft | 511 kts | 0° |
| 2026-04-29 14:52 | 4.88624 | -79.67906 | 39917 ft | 511 kts | 0° |
| 2026-04-29 14:53 | 4.95723 | -79.67590 | 39918 ft | 511 kts | 1° |
| 2026-04-29 14:53 | 5.02778 | -79.67275 | 39913 ft | 511 kts | 1° |
| 2026-04-29 14:54 | 5.09880 | -79.66958 | 39915 ft | 511 kts | 1° |
| 2026-04-29 14:54 | 5.16992 | -79.66640 | 39916 ft | 512 kts | 1° |
| 2026-04-29 14:55 | 5.24108 | -79.66438 | 39920 ft | 512 kts | 359° |
| 2026-04-29 14:55 | 5.31237 | -79.66246 | 39921 ft | 513 kts | 0° |
| 2026-04-29 14:56 | 5.38323 | -79.66036 | 39917 ft | 513 kts | 360° |
| 2026-04-29 14:56 | 5.45462 | -79.65843 | 39920 ft | 514 kts | 0° |
| 2026-04-29 14:57 | 5.52615 | -79.65635 | 39920 ft | 515 kts | 360° |
| 2026-04-29 14:57 | 5.59781 | -79.65437 | 39923 ft | 516 kts | 360° |
| 2026-04-29 14:58 | 5.66911 | -79.65233 | 39923 ft | 516 kts | 360° |
| 2026-04-29 14:58 | 5.74095 | -79.65032 | 39925 ft | 517 kts | 360° |
| 2026-04-29 14:59 | 5.81290 | -79.64827 | 39924 ft | 518 kts | 359° |
| 2026-04-29 14:59 | 5.88493 | -79.64624 | 39929 ft | 518 kts | 359° |
| 2026-04-29 15:00 | 5.95654 | -79.64422 | 39927 ft | 518 kts | 359° |
| 2026-04-29 15:00 | 6.02866 | -79.64218 | 39928 ft | 519 kts | 359° |
| 2026-04-29 15:01 | 6.10086 | -79.64013 | 39920 ft | 519 kts | 359° |
| 2026-04-29 15:01 | 6.17312 | -79.63809 | 39922 ft | 520 kts | 359° |
| 2026-04-29 15:02 | 6.24496 | -79.63606 | 39922 ft | 520 kts | 359° |
| 2026-04-29 15:02 | 6.31726 | -79.63401 | 39919 ft | 519 kts | 359° |
| 2026-04-29 15:03 | 6.38956 | -79.63196 | 39922 ft | 520 kts | 359° |
| 2026-04-29 15:03 | 6.46188 | -79.62992 | 39916 ft | 521 kts | 359° |
| 2026-04-29 15:04 | 6.53386 | -79.62787 | 39918 ft | 521 kts | 359° |
| 2026-04-29 15:04 | 6.60624 | -79.62582 | 39919 ft | 520 kts | 359° |
| 2026-04-29 15:05 | 6.67864 | -79.62377 | 40045 ft | 518 kts | 359° |
| 2026-04-29 15:05 | 6.71438 | -79.62274 | 40288 ft | 506 kts | 359° |
| 2026-04-29 15:05 | 6.74876 | -79.62173 | 40882 ft | 483 kts | 359° |
| 2026-04-29 15:05 | 6.78191 | -79.62080 | 41580 ft | 473 kts | 358° |
| 2026-04-29 15:06 | 6.81429 | -79.61994 | 41850 ft | 472 kts | 358° |
| 2026-04-29 15:06 | 6.84705 | -79.61902 | 42089 ft | 471 kts | 358° |
| 2026-04-29 15:06 | 6.87981 | -79.61806 | 42320 ft | 470 kts | 358° |
| 2026-04-29 15:06 | 6.91250 | -79.61712 | 42551 ft | 469 kts | 358° |
| 2026-04-29 15:07 | 6.94508 | -79.61621 | 42763 ft | 468 kts | 358° |
| 2026-04-29 15:07 | 6.97766 | -79.61529 | 42906 ft | 469 kts | 358° |
| 2026-04-29 15:07 | 7.01045 | -79.61437 | 42905 ft | 473 kts | 358° |
| 2026-04-29 15:08 | 7.07683 | -79.61248 | 42910 ft | 481 kts | 358° |
| 2026-04-29 15:08 | 7.14369 | -79.61058 | 42920 ft | 487 kts | 358° |
| 2026-04-29 15:09 | 7.21196 | -79.60864 | 42921 ft | 494 kts | 358° |
| 2026-04-29 15:09 | 7.28107 | -79.60667 | 42923 ft | 500 kts | 358° |
| 2026-04-29 15:10 | 7.35098 | -79.60461 | 42919 ft | 505 kts | 358° |
| 2026-04-29 15:10 | 7.42106 | -79.60253 | 42926 ft | 509 kts | 358° |
| 2026-04-29 15:11 | 7.49187 | -79.60044 | 42924 ft | 509 kts | 358° |
| 2026-04-29 15:11 | 7.56270 | -79.59834 | 42920 ft | 509 kts | 358° |
| 2026-04-29 15:12 | 7.63337 | -79.59626 | 42926 ft | 508 kts | 358° |
| 2026-04-29 15:12 | 7.70361 | -79.59418 | 42927 ft | 508 kts | 358° |
| 2026-04-29 15:13 | 7.77435 | -79.59208 | 42921 ft | 509 kts | 358° |
| 2026-04-29 15:13 | 7.84515 | -79.58999 | 42928 ft | 509 kts | 358° |
| 2026-04-29 15:14 | 7.91597 | -79.58789 | 42927 ft | 509 kts | 358° |
| 2026-04-29 15:14 | 7.98688 | -79.58579 | 42921 ft | 509 kts | 358° |
| 2026-04-29 15:15 | 8.05719 | -79.58371 | 42920 ft | 509 kts | 358° |
| 2026-04-29 15:15 | 8.12798 | -79.58161 | 42918 ft | 509 kts | 358° |
| 2026-04-29 15:16 | 8.19877 | -79.57951 | 42914 ft | 509 kts | 358° |
| 2026-04-29 15:16 | 8.26955 | -79.57741 | 42912 ft | 509 kts | 358° |
| 2026-04-29 15:17 | 8.33988 | -79.57532 | 42906 ft | 509 kts | 358° |
| 2026-04-29 15:17 | 8.41070 | -79.57322 | 42904 ft | 509 kts | 358° |
| 2026-04-29 15:18 | 8.48142 | -79.57112 | 42901 ft | 508 kts | 358° |
| 2026-04-29 15:18 | 8.55163 | -79.56904 | 42901 ft | 508 kts | 358° |
| 2026-04-29 15:19 | 8.62227 | -79.56693 | 42895 ft | 508 kts | 358° |
| 2026-04-29 15:19 | 8.69288 | -79.56483 | 42896 ft | 507 kts | 358° |
| 2026-04-29 15:20 | 8.76343 | -79.56274 | 42893 ft | 507 kts | 358° |
| 2026-04-29 15:20 | 8.83276 | -79.56972 | 42892 ft | 499 kts | 345° |
| 2026-04-29 15:21 | 8.90078 | -79.58123 | 42894 ft | 499 kts | 346° |
| 2026-04-29 15:21 | 8.96917 | -79.59288 | 42893 ft | 498 kts | 346° |
| 2026-04-29 15:22 | 9.03758 | -79.60451 | 42895 ft | 499 kts | 346° |
| 2026-04-29 15:22 | 9.10605 | -79.61616 | 42896 ft | 498 kts | 346° |
| 2026-04-29 15:23 | 9.17387 | -79.62771 | 42901 ft | 497 kts | 346° |
| 2026-04-29 15:23 | 9.24209 | -79.63932 | 42904 ft | 497 kts | 346° |
| 2026-04-29 15:24 | 9.31024 | -79.65092 | 42918 ft | 496 kts | 346° |
| 2026-04-29 15:24 | 9.37831 | -79.66254 | 42920 ft | 496 kts | 346° |
| 2026-04-29 15:25 | 9.44585 | -79.67403 | 42933 ft | 495 kts | 346° |
| 2026-04-29 15:25 | 9.51378 | -79.68565 | 42923 ft | 495 kts | 346° |
| 2026-04-29 15:26 | 9.58172 | -79.69721 | 42923 ft | 495 kts | 346° |
| 2026-04-29 15:26 | 9.64961 | -79.70882 | 42930 ft | 495 kts | 346° |
| 2026-04-29 15:27 | 9.71708 | -79.72033 | 42930 ft | 495 kts | 346° |
| 2026-04-29 15:27 | 9.78500 | -79.73193 | 42934 ft | 494 kts | 346° |
| 2026-04-29 15:28 | 9.85281 | -79.74352 | 42941 ft | 494 kts | 346° |
| 2026-04-29 15:28 | 9.92058 | -79.75511 | 42936 ft | 494 kts | 346° |
| 2026-04-29 15:29 | 9.98827 | -79.76669 | 42942 ft | 493 kts | 346° |
| 2026-04-29 15:30 | 10.12314 | -79.78977 | 42942 ft | 493 kts | 346° |
| 2026-04-29 15:30 | 10.19072 | -79.80134 | 42943 ft | 493 kts | 346° |
| 2026-04-29 15:31 | 10.25845 | -79.81295 | 42942 ft | 494 kts | 346° |
| 2026-04-29 15:31 | 10.32576 | -79.82448 | 42943 ft | 494 kts | 346° |
| 2026-04-29 15:32 | 10.39357 | -79.83611 | 42941 ft | 494 kts | 346° |
| 2026-04-29 15:32 | 10.46135 | -79.84761 | 42942 ft | 494 kts | 346° |
| 2026-04-29 15:33 | 10.52921 | -79.85871 | 42943 ft | 494 kts | 346° |
| 2026-04-29 15:33 | 10.59654 | -79.87001 | 42942 ft | 494 kts | 346° |
| 2026-04-29 15:34 | 10.66439 | -79.88122 | 42943 ft | 493 kts | 346° |
| 2026-04-29 15:34 | 10.73216 | -79.89253 | 42943 ft | 493 kts | 346° |
| 2026-04-29 15:35 | 10.79990 | -79.90378 | 42942 ft | 493 kts | 346° |
| 2026-04-29 15:35 | 10.86709 | -79.91498 | 42941 ft | 492 kts | 346° |
| 2026-04-29 15:36 | 10.93470 | -79.92623 | 42943 ft | 492 kts | 346° |
| 2026-04-29 15:36 | 11.00224 | -79.93749 | 42942 ft | 491 kts | 346° |
| 2026-04-29 15:37 | 11.06970 | -79.94873 | 42944 ft | 491 kts | 346° |
| 2026-04-29 15:37 | 11.13707 | -79.95996 | 42944 ft | 490 kts | 346° |
| 2026-04-29 15:38 | 11.20401 | -79.97114 | 42949 ft | 491 kts | 346° |
| 2026-04-29 15:38 | 11.27142 | -79.98239 | 42943 ft | 491 kts | 346° |
| 2026-04-29 15:39 | 11.33886 | -79.99365 | 42945 ft | 491 kts | 346° |
| 2026-04-29 15:39 | 11.40629 | -80.00492 | 42943 ft | 491 kts | 346° |
| 2026-04-29 15:40 | 11.47369 | -80.01619 | 42947 ft | 491 kts | 346° |
| 2026-04-29 15:40 | 11.54064 | -80.02738 | 42948 ft | 491 kts | 346° |
| 2026-04-29 15:41 | 11.60801 | -80.03866 | 42946 ft | 491 kts | 346° |
| 2026-04-29 15:41 | 11.67539 | -80.04994 | 42960 ft | 491 kts | 346° |
| 2026-04-29 15:42 | 11.74287 | -80.06124 | 42948 ft | 491 kts | 347° |
| 2026-04-29 15:42 | 11.80987 | -80.07247 | 42946 ft | 491 kts | 347° |
| 2026-04-29 15:43 | 11.87735 | -80.08378 | 42947 ft | 492 kts | 347° |
| 2026-04-29 15:43 | 11.93347 | -80.09320 | 42949 ft | 492 kts | 347° |
| 2026-04-29 15:44 | 12.00095 | -80.10452 | 42951 ft | 492 kts | 347° |
| 2026-04-29 15:44 | 12.06849 | -80.11586 | 42953 ft | 492 kts | 347° |
| 2026-04-29 15:45 | 12.14700 | -80.12905 | 42956 ft | 492 kts | 347° |
| 2026-04-29 15:45 | 12.20315 | -80.13849 | 42954 ft | 492 kts | 347° |
| 2026-04-29 15:46 | 12.27073 | -80.14985 | 42954 ft | 492 kts | 347° |
| 2026-04-29 15:46 | 12.33836 | -80.16123 | 42954 ft | 493 kts | 347° |
| 2026-04-29 15:47 | 12.40598 | -80.17261 | 42959 ft | 492 kts | 347° |
| 2026-04-29 15:47 | 12.47359 | -80.18400 | 42959 ft | 493 kts | 347° |
| 2026-04-29 15:48 | 12.54077 | -80.19532 | 42961 ft | 493 kts | 347° |
| 2026-04-29 15:48 | 12.60843 | -80.20673 | 42963 ft | 493 kts | 347° |
| 2026-04-29 15:49 | 12.67606 | -80.21814 | 42961 ft | 492 kts | 347° |
| 2026-04-29 15:49 | 12.74369 | -80.22956 | 42958 ft | 493 kts | 347° |
| 2026-04-29 15:50 | 12.81087 | -80.24090 | 42963 ft | 492 kts | 347° |
| 2026-04-29 15:50 | 12.87849 | -80.25232 | 42968 ft | 492 kts | 347° |
| 2026-04-29 15:51 | 12.94612 | -80.26376 | 42966 ft | 492 kts | 347° |
| 2026-04-29 15:51 | 13.01371 | -80.27519 | 42965 ft | 493 kts | 347° |
| 2026-04-29 15:52 | 13.08092 | -80.28656 | 42965 ft | 492 kts | 347° |
| 2026-04-29 15:52 | 13.14855 | -80.29802 | 42969 ft | 493 kts | 347° |
| 2026-04-29 15:53 | 13.21610 | -80.30946 | 42966 ft | 492 kts | 347° |
| 2026-04-29 15:53 | 13.28362 | -80.32091 | 42969 ft | 492 kts | 347° |
| 2026-04-29 15:54 | 13.35060 | -80.33227 | 42969 ft | 491 kts | 347° |
| 2026-04-29 15:54 | 13.41792 | -80.34370 | 42970 ft | 490 kts | 347° |
| 2026-04-29 15:55 | 13.48528 | -80.35514 | 42978 ft | 491 kts | 347° |
| 2026-04-29 15:55 | 13.55267 | -80.36659 | 42973 ft | 491 kts | 347° |
| 2026-04-29 15:56 | 13.61956 | -80.37796 | 42970 ft | 490 kts | 347° |
| 2026-04-29 15:56 | 13.68689 | -80.38941 | 42974 ft | 490 kts | 347° |
| 2026-04-29 15:57 | 13.75421 | -80.40087 | 42971 ft | 491 kts | 347° |
| 2026-04-29 15:57 | 13.82156 | -80.41234 | 42981 ft | 491 kts | 347° |
| 2026-04-29 15:58 | 13.88891 | -80.42382 | 42983 ft | 490 kts | 347° |
| 2026-04-29 15:58 | 13.95577 | -80.43522 | 42977 ft | 490 kts | 347° |
| 2026-04-29 15:59 | 14.02306 | -80.44670 | 42974 ft | 490 kts | 347° |
| 2026-04-29 15:59 | 14.09021 | -80.45816 | 42974 ft | 489 kts | 347° |
| 2026-04-29 16:00 | 14.15728 | -80.46962 | 42977 ft | 488 kts | 347° |
| 2026-04-29 16:00 | 14.22382 | -80.48099 | 42977 ft | 487 kts | 347° |
| 2026-04-29 16:01 | 14.29067 | -80.49242 | 42982 ft | 487 kts | 347° |
| 2026-04-29 16:01 | 14.35751 | -80.50386 | 42981 ft | 487 kts | 347° |
| 2026-04-29 16:02 | 14.42441 | -80.51532 | 42980 ft | 487 kts | 347° |
| 2026-04-29 16:02 | 14.49080 | -80.52669 | 42982 ft | 487 kts | 347° |
| 2026-04-29 16:03 | 14.55763 | -80.53815 | 42983 ft | 487 kts | 347° |
| 2026-04-29 16:03 | 14.62447 | -80.54956 | 42986 ft | 486 kts | 347° |
| 2026-04-29 16:04 | 14.69116 | -80.56117 | 42985 ft | 486 kts | 347° |
| 2026-04-29 16:04 | 14.75744 | -80.57238 | 42985 ft | 485 kts | 347° |
| 2026-04-29 16:05 | 14.82400 | -80.58392 | 42984 ft | 485 kts | 347° |
| 2026-04-29 16:05 | 14.89053 | -80.59530 | 42989 ft | 484 kts | 347° |
| 2026-04-29 16:06 | 14.95697 | -80.60677 | 42989 ft | 484 kts | 347° |
| 2026-04-29 16:06 | 15.02340 | -80.61818 | 42989 ft | 483 kts | 347° |
| 2026-04-29 16:07 | 15.08917 | -80.62958 | 42989 ft | 482 kts | 347° |
| 2026-04-29 16:07 | 15.15522 | -80.64099 | 42989 ft | 481 kts | 347° |
| 2026-04-29 16:08 | 15.22127 | -80.65243 | 42992 ft | 481 kts | 347° |
| 2026-04-29 16:08 | 15.28724 | -80.66385 | 42989 ft | 480 kts | 347° |
| 2026-04-29 16:09 | 15.35268 | -80.67520 | 42989 ft | 480 kts | 347° |
| 2026-04-29 16:09 | 15.41852 | -80.68661 | 42990 ft | 479 kts | 347° |
| 2026-04-29 16:10 | 15.48427 | -80.69803 | 42996 ft | 479 kts | 347° |
| 2026-04-29 16:10 | 15.54998 | -80.70943 | 42994 ft | 478 kts | 348° |
| 2026-04-29 16:11 | 15.61521 | -80.72077 | 43000 ft | 479 kts | 348° |
| 2026-04-29 16:11 | 15.68087 | -80.73218 | 42996 ft | 478 kts | 348° |
| 2026-04-29 16:12 | 15.74652 | -80.74360 | 42997 ft | 478 kts | 348° |
| 2026-04-29 16:12 | 15.81218 | -80.75504 | 42997 ft | 478 kts | 348° |
| 2026-04-29 16:13 | 15.87784 | -80.76648 | 42997 ft | 479 kts | 348° |
| 2026-04-29 16:13 | 15.94306 | -80.77784 | 42999 ft | 478 kts | 348° |
| 2026-04-29 16:14 | 16.00875 | -80.78930 | 43001 ft | 479 kts | 348° |
| 2026-04-29 16:14 | 16.07437 | -80.80075 | 43001 ft | 478 kts | 348° |
| 2026-04-29 16:15 | 16.13995 | -80.81221 | 43001 ft | 477 kts | 348° |
| 2026-04-29 16:15 | 16.20494 | -80.82357 | 43004 ft | 476 kts | 348° |
| 2026-04-29 16:16 | 16.27031 | -80.83500 | 43003 ft | 477 kts | 348° |
| 2026-04-29 16:16 | 16.33566 | -80.84643 | 43000 ft | 476 kts | 348° |
| 2026-04-29 16:17 | 16.40096 | -80.85787 | 43002 ft | 476 kts | 348° |
| 2026-04-29 16:17 | 16.46579 | -80.86923 | 43001 ft | 476 kts | 348° |
| 2026-04-29 16:18 | 16.53106 | -80.88068 | 43008 ft | 476 kts | 348° |
| 2026-04-29 16:18 | 16.59633 | -80.89213 | 43004 ft | 475 kts | 348° |
| 2026-04-29 16:19 | 16.66153 | -80.90358 | 43010 ft | 475 kts | 348° |
| 2026-04-29 16:19 | 16.72666 | -80.91502 | 43009 ft | 474 kts | 348° |
| 2026-04-29 16:20 | 16.79129 | -80.92639 | 43009 ft | 474 kts | 348° |
| 2026-04-29 16:20 | 16.85624 | -80.93782 | 43009 ft | 473 kts | 348° |
| 2026-04-29 16:21 | 16.92119 | -80.94925 | 43010 ft | 474 kts | 348° |
| 2026-04-29 16:21 | 16.98617 | -80.96071 | 43014 ft | 473 kts | 348° |
| 2026-04-29 16:22 | 17.05070 | -80.97208 | 43015 ft | 474 kts | 348° |
| 2026-04-29 16:22 | 17.11573 | -80.98356 | 43015 ft | 474 kts | 348° |
| 2026-04-29 16:23 | 17.18072 | -80.99503 | 43014 ft | 474 kts | 348° |
| 2026-04-29 16:23 | 17.24572 | -81.00652 | 43015 ft | 473 kts | 348° |
| 2026-04-29 16:24 | 17.31020 | -81.01793 | 43016 ft | 473 kts | 348° |
| 2026-04-29 16:24 | 17.37508 | -81.02940 | 43016 ft | 473 kts | 348° |
| 2026-04-29 16:25 | 17.43991 | -81.04088 | 43015 ft | 472 kts | 348° |
| 2026-04-29 16:25 | 17.50472 | -81.05237 | 43016 ft | 472 kts | 348° |
| 2026-04-29 16:26 | 17.56944 | -81.06385 | 43016 ft | 471 kts | 348° |
| 2026-04-29 16:26 | 17.63359 | -81.07523 | 43020 ft | 470 kts | 348° |
| 2026-04-29 16:27 | 17.69809 | -81.08669 | 43020 ft | 470 kts | 348° |
| 2026-04-29 16:27 | 17.76262 | -81.09815 | 43016 ft | 470 kts | 348° |
| 2026-04-29 16:28 | 17.82713 | -81.10963 | 43024 ft | 470 kts | 348° |
| 2026-04-29 16:28 | 17.89124 | -81.12104 | 43025 ft | 470 kts | 348° |
| 2026-04-29 16:29 | 17.95572 | -81.13252 | 43023 ft | 470 kts | 348° |
| 2026-04-29 16:29 | 18.02016 | -81.14401 | 43023 ft | 469 kts | 348° |
| 2026-04-29 16:30 | 18.08460 | -81.15551 | 43025 ft | 470 kts | 348° |
| 2026-04-29 16:30 | 18.14900 | -81.16700 | 43025 ft | 469 kts | 348° |
| 2026-04-29 16:31 | 18.21288 | -81.17842 | 43028 ft | 468 kts | 348° |
| 2026-04-29 16:31 | 18.27718 | -81.18990 | 43014 ft | 471 kts | 348° |
| 2026-04-29 16:32 | 18.34191 | -81.20149 | 43017 ft | 472 kts | 348° |
| 2026-04-29 16:32 | 18.40673 | -81.21314 | 43018 ft | 473 kts | 348° |
| 2026-04-29 16:33 | 18.50349 | -81.23045 | 43024 ft | 472 kts | 348° |
| 2026-04-29 16:33 | 18.56814 | -81.24203 | 43027 ft | 471 kts | 348° |
| 2026-04-29 16:34 | 18.63271 | -81.25363 | 43027 ft | 470 kts | 348° |
| 2026-04-29 16:34 | 18.69731 | -81.26524 | 43029 ft | 472 kts | 348° |
| 2026-04-29 16:35 | 18.76171 | -81.27682 | 43034 ft | 473 kts | 348° |
| 2026-04-29 16:35 | 18.82673 | -81.28852 | 43035 ft | 474 kts | 348° |
| 2026-04-29 16:36 | 18.89160 | -81.30020 | 43034 ft | 472 kts | 348° |
| 2026-04-29 16:36 | 18.95636 | -81.31187 | 43036 ft | 473 kts | 348° |
| 2026-04-29 16:37 | 19.02080 | -81.32350 | 43034 ft | 473 kts | 347° |
| 2026-04-29 16:37 | 19.07522 | -81.33332 | 43032 ft | 473 kts | 348° |
| 2026-04-29 16:38 | 19.15051 | -81.34692 | 43031 ft | 472 kts | 348° |
| 2026-04-29 16:38 | 19.21523 | -81.35862 | 43030 ft | 472 kts | 348° |
| 2026-04-29 16:39 | 19.27995 | -81.37033 | 43030 ft | 472 kts | 348° |
| 2026-04-29 16:39 | 19.34517 | -81.37564 | 43031 ft | 474 kts | 354° |
| 2026-04-29 16:40 | 19.41100 | -81.38048 | 43030 ft | 474 kts | 353° |
| 2026-04-29 16:40 | 19.47677 | -81.38480 | 43035 ft | 473 kts | 354° |
| 2026-04-29 16:41 | 19.54230 | -81.38939 | 43036 ft | 471 kts | 353° |
| 2026-04-29 16:41 | 19.60732 | -81.39380 | 43041 ft | 472 kts | 353° |
| 2026-04-29 16:42 | 19.67288 | -81.39833 | 43043 ft | 472 kts | 353° |
| 2026-04-29 16:42 | 19.73843 | -81.40282 | 43041 ft | 472 kts | 353° |
| 2026-04-29 16:43 | 19.80392 | -81.40733 | 43044 ft | 471 kts | 353° |
| 2026-04-29 16:43 | 19.86929 | -81.41182 | 43045 ft | 470 kts | 353° |
| 2026-04-29 16:44 | 19.93418 | -81.41629 | 43040 ft | 471 kts | 353° |
| 2026-04-29 16:44 | 19.99947 | -81.42191 | 43028 ft | 469 kts | 347° |
| 2026-04-29 16:45 | 20.06230 | -81.43933 | 43037 ft | 467 kts | 342° |
| 2026-04-29 16:45 | 20.12495 | -81.45778 | 43047 ft | 467 kts | 342° |
| 2026-04-29 16:46 | 20.18718 | -81.47629 | 43049 ft | 468 kts | 341° |
| 2026-04-29 16:46 | 20.24981 | -81.49485 | 43049 ft | 467 kts | 341° |
| 2026-04-29 16:47 | 20.31231 | -81.51342 | 43054 ft | 466 kts | 341° |
| 2026-04-29 16:47 | 20.37481 | -81.53200 | 43051 ft | 467 kts | 341° |
| 2026-04-29 16:48 | 20.43735 | -81.55060 | 43047 ft | 466 kts | 341° |
| 2026-04-29 16:48 | 20.49943 | -81.56908 | 43050 ft | 466 kts | 341° |
| 2026-04-29 16:49 | 20.56193 | -81.58771 | 43054 ft | 467 kts | 341° |
| 2026-04-29 16:49 | 20.62453 | -81.60638 | 43049 ft | 468 kts | 341° |
| 2026-04-29 16:50 | 20.68718 | -81.62507 | 43054 ft | 467 kts | 341° |
| 2026-04-29 16:50 | 20.74931 | -81.64364 | 43060 ft | 467 kts | 341° |
| 2026-04-29 16:51 | 20.81193 | -81.66236 | 43049 ft | 467 kts | 341° |
| 2026-04-29 16:51 | 20.87463 | -81.68113 | 43053 ft | 468 kts | 341° |
| 2026-04-29 16:52 | 20.93735 | -81.69991 | 43052 ft | 468 kts | 341° |
| 2026-04-29 16:52 | 20.99947 | -81.71853 | 43063 ft | 464 kts | 341° |
| 2026-04-29 16:53 | 21.03042 | -81.72781 | 42940 ft | 461 kts | 341° |
| 2026-04-29 16:53 | 21.06126 | -81.73707 | 42506 ft | 458 kts | 341° |
| 2026-04-29 16:53 | 21.09187 | -81.74626 | 41853 ft | 454 kts | 341° |
| 2026-04-29 16:53 | 21.12208 | -81.75533 | 41220 ft | 447 kts | 341° |
| 2026-04-29 16:54 | 21.15183 | -81.76426 | 40611 ft | 441 kts | 341° |
| 2026-04-29 16:54 | 21.18123 | -81.77311 | 39985 ft | 437 kts | 341° |
| 2026-04-29 16:54 | 21.21014 | -81.78182 | 39288 ft | 438 kts | 341° |
| 2026-04-29 16:54 | 21.23949 | -81.79065 | 38572 ft | 439 kts | 342° |
| 2026-04-29 16:55 | 21.26892 | -81.79950 | 37768 ft | 440 kts | 342° |
| 2026-04-29 16:55 | 21.29837 | -81.80837 | 36989 ft | 440 kts | 342° |
| 2026-04-29 16:55 | 21.32790 | -81.81727 | 36242 ft | 441 kts | 342° |
| 2026-04-29 16:55 | 21.35755 | -81.82620 | 35516 ft | 442 kts | 343° |
| 2026-04-29 16:56 | 21.38715 | -81.83513 | 34908 ft | 441 kts | 343° |
| 2026-04-29 16:56 | 21.41669 | -81.84402 | 34442 ft | 442 kts | 343° |
| 2026-04-29 16:56 | 21.44604 | -81.85291 | 33979 ft | 445 kts | 343° |
| 2026-04-29 16:56 | 21.47589 | -81.86192 | 33448 ft | 446 kts | 343° |
| 2026-04-29 16:57 | 21.50579 | -81.87092 | 32926 ft | 447 kts | 344° |
| 2026-04-29 16:57 | 21.53580 | -81.87998 | 32412 ft | 449 kts | 344° |
| 2026-04-29 16:57 | 21.56594 | -81.88911 | 31908 ft | 450 kts | 344° |
| 2026-04-29 16:57 | 21.59615 | -81.89825 | 31412 ft | 452 kts | 344° |
| 2026-04-29 16:58 | 21.62646 | -81.90735 | 30937 ft | 452 kts | 341° |
| 2026-04-29 16:58 | 21.65671 | -81.91657 | 30413 ft | 451 kts | 341° |
| 2026-04-29 16:58 | 21.68639 | -81.92565 | 29869 ft | 449 kts | 341° |
| 2026-04-29 16:58 | 21.71639 | -81.93465 | 29254 ft | 445 kts | 342° |
| 2026-04-29 16:59 | 21.74610 | -81.94358 | 28653 ft | 442 kts | 341° |
| 2026-04-29 16:59 | 21.77552 | -81.95254 | 28065 ft | 438 kts | 341° |
| 2026-04-29 16:59 | 21.80467 | -81.96142 | 27489 ft | 434 kts | 342° |
| 2026-04-29 16:59 | 21.83361 | -81.97019 | 26924 ft | 430 kts | 342° |
| 2026-04-29 17:00 | 21.86234 | -81.97889 | 26369 ft | 427 kts | 342° |
| 2026-04-29 17:00 | 21.89082 | -81.98754 | 25824 ft | 424 kts | 342° |
| 2026-04-29 17:00 | 21.91907 | -81.99613 | 25290 ft | 420 kts | 342° |
| 2026-04-29 17:00 | 21.94715 | -82.00467 | 24763 ft | 417 kts | 342° |
| 2026-04-29 17:01 | 21.97460 | -82.01301 | 24250 ft | 414 kts | 342° |
| 2026-04-29 17:01 | 22.00222 | -82.02141 | 23745 ft | 411 kts | 342° |
| 2026-04-29 17:01 | 22.02964 | -82.02976 | 23163 ft | 408 kts | 342° |
| 2026-04-29 17:01 | 22.05684 | -82.03804 | 22572 ft | 404 kts | 342° |
| 2026-04-29 17:02 | 22.08376 | -82.04624 | 21989 ft | 400 kts | 342° |
| 2026-04-29 17:02 | 22.11047 | -82.05437 | 21423 ft | 397 kts | 342° |
| 2026-04-29 17:02 | 22.13695 | -82.06245 | 20865 ft | 394 kts | 342° |
| 2026-04-29 17:02 | 22.16321 | -82.07045 | 20318 ft | 391 kts | 343° |
| 2026-04-29 17:03 | 22.18894 | -82.07830 | 19786 ft | 388 kts | 343° |
| 2026-04-29 17:03 | 22.21476 | -82.08620 | 19256 ft | 385 kts | 343° |
| 2026-04-29 17:03 | 22.24043 | -82.09404 | 18735 ft | 382 kts | 343° |
| 2026-04-29 17:03 | 22.26591 | -82.10174 | 18205 ft | 379 kts | 343° |
| 2026-04-29 17:04 | 22.29116 | -82.10956 | 17615 ft | 376 kts | 343° |
| 2026-04-29 17:04 | 22.31627 | -82.11725 | 17043 ft | 374 kts | 343° |
| 2026-04-29 17:04 | 22.34124 | -82.12480 | 16474 ft | 371 kts | 343° |
| 2026-04-29 17:04 | 22.36602 | -82.13238 | 15923 ft | 370 kts | 343° |
| 2026-04-29 17:05 | 22.39038 | -82.13985 | 15382 ft | 367 kts | 343° |
| 2026-04-29 17:05 | 22.41485 | -82.14734 | 14840 ft | 365 kts | 343° |
| 2026-04-29 17:05 | 22.43923 | -82.15480 | 14311 ft | 363 kts | 343° |
| 2026-04-29 17:05 | 22.46328 | -82.16217 | 13782 ft | 352 kts | 343° |
| 2026-04-29 17:06 | 22.48623 | -82.16918 | 13192 ft | 335 kts | 343° |
| 2026-04-29 17:06 | 22.50822 | -82.17593 | 12610 ft | 323 kts | 343° |
| 2026-04-29 17:06 | 22.52947 | -82.18244 | 12034 ft | 313 kts | 342° |
| 2026-04-29 17:06 | 22.55015 | -82.18880 | 11469 ft | 305 kts | 342° |
| 2026-04-29 17:07 | 22.57035 | -82.19498 | 10919 ft | 299 kts | 342° |
| 2026-04-29 17:07 | 22.59017 | -82.20107 | 10370 ft | 294 kts | 342° |
| 2026-04-29 17:07 | 22.60944 | -82.20698 | 9837 ft | 290 kts | 342° |
| 2026-04-29 17:07 | 22.62870 | -82.21292 | 9244 ft | 286 kts | 342° |
| 2026-04-29 17:08 | 22.64698 | -82.21932 | 8678 ft | 283 kts | 335° |
| 2026-04-29 17:08 | 22.66362 | -82.23034 | 8105 ft | 280 kts | 322° |
| 2026-04-29 17:08 | 22.67735 | -82.24506 | 7543 ft | 278 kts | 308° |
| 2026-04-29 17:08 | 22.68744 | -82.26272 | 7058 ft | 275 kts | 295° |
| 2026-04-29 17:09 | 22.69527 | -82.28159 | 6602 ft | 275 kts | 295° |
| 2026-04-29 17:09 | 22.70343 | -82.30033 | 6106 ft | 275 kts | 296° |
| 2026-04-29 17:09 | 22.71142 | -82.31877 | 5628 ft | 274 kts | 295° |
| 2026-04-29 17:09 | 22.71926 | -82.33752 | 5145 ft | 273 kts | 295° |
| 2026-04-29 17:10 | 22.72721 | -82.35608 | 4714 ft | 270 kts | 295° |
| 2026-04-29 17:10 | 22.73515 | -82.37452 | 4244 ft | 270 kts | 295° |
| 2026-04-29 17:10 | 22.74297 | -82.39292 | 3789 ft | 268 kts | 295° |
| 2026-04-29 17:10 | 22.75076 | -82.41118 | 3322 ft | 266 kts | 295° |
| 2026-04-29 17:11 | 22.75851 | -82.42921 | 2974 ft | 261 kts | 295° |
| 2026-04-29 17:11 | 22.76577 | -82.44651 | 2956 ft | 244 kts | 295° |
| 2026-04-29 17:11 | 22.77265 | -82.46268 | 2953 ft | 229 kts | 295° |
| 2026-04-29 17:11 | 22.77914 | -82.47770 | 2950 ft | 217 kts | 295° |
| 2026-04-29 17:12 | 22.78540 | -82.49232 | 2953 ft | 211 kts | 295° |
| 2026-04-29 17:12 | 22.79150 | -82.50673 | 2955 ft | 211 kts | 296° |
| 2026-04-29 17:12 | 22.80040 | -82.51926 | 2953 ft | 211 kts | 320° |
| 2026-04-29 17:12 | 22.80827 | -82.52546 | 2956 ft | 210 kts | 326° |
| 2026-04-29 17:13 | 22.82436 | -82.53782 | 2958 ft | 213 kts | 324° |
| 2026-04-29 17:13 | 22.83646 | -82.54739 | 2722 ft | 217 kts | 324° |
| 2026-04-29 17:13 | 22.84922 | -82.55618 | 2479 ft | 218 kts | 336° |
| 2026-04-29 17:13 | 22.86374 | -82.55989 | 2236 ft | 219 kts | 356° |
| 2026-04-29 17:14 | 22.87881 | -82.55816 | 1989 ft | 218 kts | 17° |
| 2026-04-29 17:14 | 22.89187 | -82.55127 | 1957 ft | 203 kts | 34° |
| 2026-04-29 17:14 | 22.90164 | -82.54093 | 1952 ft | 191 kts | 52° |
| 2026-04-29 17:14 | 22.90919 | -82.52937 | 1947 ft | 185 kts | 53° |
| 2026-04-29 17:15 | 22.91660 | -82.51844 | 1973 ft | 174 kts | 53° |
| 2026-04-29 17:15 | 22.92332 | -82.50826 | 1975 ft | 154 kts | 53° |
| 2026-04-29 17:15 | 22.92945 | -82.49907 | 1971 ft | 144 kts | 52° |
| 2026-04-29 17:15 | 22.93536 | -82.49040 | 1968 ft | 142 kts | 54° |
| 2026-04-29 17:16 | 22.94098 | -82.48171 | 1799 ft | 146 kts | 53° |
| 2026-04-29 17:16 | 22.94654 | -82.47297 | 1494 ft | 138 kts | 54° |
| 2026-04-29 17:16 | 22.95215 | -82.46484 | 1459 ft | 135 kts | 53° |
| 2026-04-29 17:16 | 22.95768 | -82.45644 | 1301 ft | 136 kts | 52° |
| 2026-04-29 17:17 | 22.96316 | -82.44813 | 1111 ft | 138 kts | 53° |
| 2026-04-29 17:17 | 22.96863 | -82.43979 | 868 ft | 133 kts | 52° |
| 2026-04-29 17:17 | 22.97398 | -82.43184 | 420 ft | 129 kts | 52° |
| 2026-04-29 17:17 | 22.97894 | -82.42440 | 233 ft | 116 kts | 53° |
| 2026-04-29 17:18 | 22.98295 | -82.41841 | 215 ft | 77 kts | 54° |
| 2026-04-29 17:18 | 22.98497 | -82.41535 | 213 ft | 35 kts | 54° |
| 2026-04-29 17:18 | 22.98629 | -82.41336 | 213 ft | 31 kts | 53° |
| 2026-04-29 17:18 | 22.98721 | -82.41197 | 214 ft | 21 kts | 54° |
| 2026-04-29 17:19 | 22.98830 | -82.41093 | 214 ft | 22 kts | 6° |
| 2026-04-29 17:19 | 22.98993 | -82.41061 | 215 ft | 25 kts | 18° |
| 2026-04-29 17:19 | 22.99115 | -82.40925 | 210 ft | 27 kts | 52° |
| 2026-04-29 17:19 | 22.99230 | -82.40753 | 210 ft | 29 kts | 52° |
| 2026-04-29 17:20 | 22.99325 | -82.40606 | 212 ft | 22 kts | 54° |
| 2026-04-29 17:20 | 22.99423 | -82.40462 | 213 ft | 25 kts | 57° |
| 2026-04-29 17:20 | 22.99528 | -82.40304 | 212 ft | 28 kts | 56° |
| 2026-04-29 17:20 | 22.99618 | -82.40169 | 215 ft | 13 kts | 53° |
| 2026-04-29 17:21 | 22.99681 | -82.40092 | 214 ft | 15 kts | 21° |
| 2026-04-29 17:21 | 22.99766 | -82.40080 | 211 ft | 12 kts | 7° |
| 2026-04-29 17:21 | 22.99813 | -82.40040 | 212 ft | 4 kts | 55° |
| 2026-04-29 17:21 | 22.99838 | -82.40003 | 215 ft | 8 kts | 55° |
| 2026-04-29 17:22 | 22.99859 | -82.39969 | 211 ft | 7 kts | 55° |
| 2026-04-29 17:22 | 22.99888 | -82.39925 | 211 ft | 7 kts | 54° |
| 2026-04-29 17:22 | 22.99905 | -82.39900 | 211 ft | 3 kts | 54° |
| 2026-04-29 17:22 | 22.99936 | -82.39893 | 211 ft | 7 kts | 338° |
| 2026-04-29 17:23 | 22.99956 | -82.39908 | 211 ft | 0 kts | 324° |
| 2026-04-29 17:23 | 22.99958 | -82.39910 | 211 ft | 0 kts | 324° |
| 2026-04-29 17:23 | 22.99961 | -82.39912 | 211 ft | 3 kts | 325° |
| 2026-04-29 17:23 | 22.99967 | -82.39917 | 211 ft | 0 kts | 325° |
| 2026-04-29 17:24 | 22.99972 | -82.39920 | 211 ft | 0 kts | 325° |